sensor_id;sensor_type;location;lat;lon;timestamp;P1;durP1;ratioP1;P2;durP2;ratioP2
13388;SDS011;6764;53.250;10.410;2023-05-24T00:02:06;30.60;;;6.17;;
13388;SDS011;6764;53.250;10.410;2023-05-24T00:04:32;24.70;;;6.20;;
13388;SDS011;6764;53.250;10.410;2023-05-24T00:06:58;30.93;;;6.60;;
13388;SDS011;6764;53.250;10.410;2023-05-24T00:09:27;25.67;;;5.77;;
13388;SDS011;6764;53.250;10.410;2023-05-24T00:11:53;25.87;;;6.47;;
13388;SDS011;6764;53.250;10.410;2023-05-24T00:14:19;30.87;;;6.40;;
13388;SDS011;6764;53.250;10.410;2023-05-24T00:16:45;28.30;;;6.40;;
13388;SDS011;6764;53.250;10.410;2023-05-24T00:19:10;26.97;;;6.33;;
13388;SDS011;6764;53.250;10.410;2023-05-24T00:21:42;22.33;;;5.80;;
13388;SDS011;6764;53.250;10.410;2023-05-24T00:24:10;24.27;;;6.13;;
13388;SDS011;6764;53.250;10.410;2023-05-24T00:26:36;24.13;;;6.07;;
13388;SDS011;6764;53.250;10.410;2023-05-24T00:29:02;24.47;;;6.90;;
13388;SDS011;6764;53.250;10.410;2023-05-24T00:31:27;24.50;;;6.43;;
13388;SDS011;6764;53.250;10.410;2023-05-24T00:33:53;26.73;;;6.80;;
13388;SDS011;6764;53.250;10.410;2023-05-24T00:36:19;21.60;;;6.00;;
13388;SDS011;6764;53.250;10.410;2023-05-24T00:38:45;25.60;;;6.70;;
13388;SDS011;6764;53.250;10.410;2023-05-24T00:41:10;22.83;;;5.93;;
13388;SDS011;6764;53.250;10.410;2023-05-24T00:43:36;24.07;;;7.93;;
13388;SDS011;6764;53.250;10.410;2023-05-24T00:46:13;23.27;;;6.43;;
13388;SDS011;6764;53.250;10.410;2023-05-24T00:48:42;25.40;;;6.67;;
13388;SDS011;6764;53.250;10.410;2023-05-24T00:51:08;23.13;;;6.20;;
13388;SDS011;6764;53.250;10.410;2023-05-24T00:53:35;25.23;;;6.67;;
13388;SDS011;6764;53.250;10.410;2023-05-24T00:56:02;22.97;;;6.50;;
13388;SDS011;6764;53.250;10.410;2023-05-24T00:58:28;24.37;;;6.47;;
13388;SDS011;6764;53.250;10.410;2023-05-24T01:01:00;24.90;;;6.53;;
13388;SDS011;6764;53.250;10.410;2023-05-24T01:03:27;24.43;;;5.83;;
13388;SDS011;6764;53.250;10.410;2023-05-24T01:05:56;18.60;;;5.43;;
13388;SDS011;6764;53.250;10.410;2023-05-24T01:11:03;29.40;;;6.63;;
13388;SDS011;6764;53.250;10.410;2023-05-24T01:16:24;26.30;;;6.67;;
13388;SDS011;6764;53.250;10.410;2023-05-24T01:18:56;25.47;;;6.57;;
13388;SDS011;6764;53.250;10.410;2023-05-24T01:24:39;21.63;;;6.47;;
13388;SDS011;6764;53.250;10.410;2023-05-24T01:27:11;25.67;;;6.27;;
13388;SDS011;6764;53.250;10.410;2023-05-24T01:29:39;21.30;;;6.10;;
13388;SDS011;6764;53.250;10.410;2023-05-24T01:32:05;26.40;;;6.33;;
13388;SDS011;6764;53.250;10.410;2023-05-24T01:34:31;20.27;;;7.20;;
13388;SDS011;6764;53.250;10.410;2023-05-24T01:36:57;19.43;;;5.77;;
13388;SDS011;6764;53.250;10.410;2023-05-24T01:39:23;21.67;;;6.53;;
13388;SDS011;6764;53.250;10.410;2023-05-24T01:49:58;27.80;;;7.17;;
13388;SDS011;6764;53.250;10.410;2023-05-24T01:52:45;21.10;;;6.30;;
13388;SDS011;6764;53.250;10.410;2023-05-24T01:55:16;19.43;;;5.67;;
13388;SDS011;6764;53.250;10.410;2023-05-24T01:57:43;18.50;;;6.40;;
13388;SDS011;6764;53.250;10.410;2023-05-24T02:00:14;18.33;;;5.93;;
13388;SDS011;6764;53.250;10.410;2023-05-24T02:02:42;29.20;;;7.07;;
13388;SDS011;6764;53.250;10.410;2023-05-24T02:05:08;22.67;;;6.17;;
13388;SDS011;6764;53.250;10.410;2023-05-24T02:07:35;24.07;;;7.50;;
13388;SDS011;6764;53.250;10.410;2023-05-24T02:10:00;21.43;;;6.27;;
13388;SDS011;6764;53.250;10.410;2023-05-24T02:12:26;28.33;;;6.93;;
13388;SDS011;6764;53.250;10.410;2023-05-24T02:14:51;27.13;;;6.87;;
13388;SDS011;6764;53.250;10.410;2023-05-24T02:17:18;28.07;;;7.67;;
13388;SDS011;6764;53.250;10.410;2023-05-24T02:19:44;22.13;;;6.07;;
13388;SDS011;6764;53.250;10.410;2023-05-24T02:22:09;19.67;;;6.07;;
13388;SDS011;6764;53.250;10.410;2023-05-24T02:24:36;23.90;;;6.23;;
13388;SDS011;6764;53.250;10.410;2023-05-24T02:27:04;23.63;;;6.73;;
13388;SDS011;6764;53.250;10.410;2023-05-24T02:29:30;19.73;;;6.67;;
13388;SDS011;6764;53.250;10.410;2023-05-24T02:31:55;21.20;;;6.00;;
13388;SDS011;6764;53.250;10.410;2023-05-24T02:34:21;22.53;;;6.67;;
13388;SDS011;6764;53.250;10.410;2023-05-24T02:36:47;22.60;;;6.20;;
13388;SDS011;6764;53.250;10.410;2023-05-24T02:39:13;28.87;;;7.43;;
13388;SDS011;6764;53.250;10.410;2023-05-24T02:41:39;22.07;;;6.27;;
13388;SDS011;6764;53.250;10.410;2023-05-24T02:44:05;24.63;;;6.87;;
13388;SDS011;6764;53.250;10.410;2023-05-24T02:46:31;21.53;;;6.67;;
13388;SDS011;6764;53.250;10.410;2023-05-24T02:48:57;24.43;;;6.63;;
13388;SDS011;6764;53.250;10.410;2023-05-24T02:51:22;26.83;;;6.43;;
13388;SDS011;6764;53.250;10.410;2023-05-24T02:53:48;22.63;;;6.27;;
13388;SDS011;6764;53.250;10.410;2023-05-24T02:56:14;27.37;;;6.80;;
13388;SDS011;6764;53.250;10.410;2023-05-24T02:58:41;27.60;;;6.43;;
13388;SDS011;6764;53.250;10.410;2023-05-24T03:01:09;28.53;;;7.10;;
13388;SDS011;6764;53.250;10.410;2023-05-24T03:03:36;23.20;;;6.90;;
13388;SDS011;6764;53.250;10.410;2023-05-24T03:06:02;23.73;;;7.20;;
13388;SDS011;6764;53.250;10.410;2023-05-24T03:08:28;27.17;;;6.93;;
13388;SDS011;6764;53.250;10.410;2023-05-24T03:10:53;23.47;;;6.53;;
13388;SDS011;6764;53.250;10.410;2023-05-24T03:13:19;28.80;;;7.47;;
13388;SDS011;6764;53.250;10.410;2023-05-24T03:15:44;26.60;;;7.10;;
13388;SDS011;6764;53.250;10.410;2023-05-24T03:18:10;22.37;;;6.87;;
13388;SDS011;6764;53.250;10.410;2023-05-24T03:20:36;29.07;;;7.17;;
13388;SDS011;6764;53.250;10.410;2023-05-24T03:23:01;27.10;;;6.50;;
13388;SDS011;6764;53.250;10.410;2023-05-24T03:25:27;26.93;;;7.60;;
13388;SDS011;6764;53.250;10.410;2023-05-24T03:27:52;28.53;;;7.13;;
13388;SDS011;6764;53.250;10.410;2023-05-24T03:30:18;28.10;;;7.33;;
13388;SDS011;6764;53.250;10.410;2023-05-24T03:32:44;25.03;;;7.23;;
13388;SDS011;6764;53.250;10.410;2023-05-24T03:35:09;21.47;;;6.50;;
13388;SDS011;6764;53.250;10.410;2023-05-24T03:37:38;27.87;;;7.00;;
13388;SDS011;6764;53.250;10.410;2023-05-24T03:40:04;25.97;;;7.80;;
13388;SDS011;6764;53.250;10.410;2023-05-24T03:42:30;28.90;;;6.77;;
13388;SDS011;6764;53.250;10.410;2023-05-24T03:44:56;22.73;;;7.60;;
13388;SDS011;6764;53.250;10.410;2023-05-24T03:47:22;24.67;;;7.53;;
13388;SDS011;6764;53.250;10.410;2023-05-24T03:49:47;26.43;;;6.13;;
13388;SDS011;6764;53.250;10.410;2023-05-24T03:52:13;23.37;;;7.03;;
13388;SDS011;6764;53.250;10.410;2023-05-24T03:54:38;24.93;;;7.03;;
13388;SDS011;6764;53.250;10.410;2023-05-24T03:57:04;31.13;;;7.00;;
13388;SDS011;6764;53.250;10.410;2023-05-24T03:59:30;19.93;;;6.43;;
13388;SDS011;6764;53.250;10.410;2023-05-24T04:01:56;25.83;;;7.87;;
13388;SDS011;6764;53.250;10.410;2023-05-24T04:04:21;20.97;;;6.57;;
13388;SDS011;6764;53.250;10.410;2023-05-24T04:06:47;30.27;;;6.97;;
13388;SDS011;6764;53.250;10.410;2023-05-24T04:09:13;24.43;;;6.40;;
13388;SDS011;6764;53.250;10.410;2023-05-24T04:11:39;23.43;;;7.17;;
13388;SDS011;6764;53.250;10.410;2023-05-24T04:14:05;28.60;;;7.10;;
13388;SDS011;6764;53.250;10.410;2023-05-24T04:16:31;21.10;;;5.87;;
13388;SDS011;6764;53.250;10.410;2023-05-24T04:18:58;25.87;;;7.70;;
13388;SDS011;6764;53.250;10.410;2023-05-24T04:21:25;25.67;;;7.77;;
13388;SDS011;6764;53.250;10.410;2023-05-24T04:23:50;28.07;;;6.90;;
13388;SDS011;6764;53.250;10.410;2023-05-24T04:26:16;25.03;;;6.80;;
13388;SDS011;6764;53.250;10.410;2023-05-24T04:28:42;21.40;;;7.97;;
13388;SDS011;6764;53.250;10.410;2023-05-24T04:31:09;26.13;;;7.57;;
13388;SDS011;6764;53.250;10.410;2023-05-24T04:33:35;27.30;;;6.90;;
13388;SDS011;6764;53.250;10.410;2023-05-24T04:36:03;22.97;;;6.53;;
13388;SDS011;6764;53.250;10.410;2023-05-24T04:38:29;20.53;;;6.77;;
13388;SDS011;6764;53.250;10.410;2023-05-24T04:40:56;22.10;;;6.37;;
13388;SDS011;6764;53.250;10.410;2023-05-24T04:43:23;26.63;;;7.13;;
13388;SDS011;6764;53.250;10.410;2023-05-24T04:45:50;22.63;;;7.00;;
13388;SDS011;6764;53.250;10.410;2023-05-24T04:48:18;20.43;;;5.77;;
13388;SDS011;6764;53.250;10.410;2023-05-24T04:50:51;24.23;;;6.30;;
13388;SDS011;6764;53.250;10.410;2023-05-24T04:53:18;20.63;;;6.50;;
13388;SDS011;6764;53.250;10.410;2023-05-24T04:55:44;21.80;;;6.83;;
13388;SDS011;6764;53.250;10.410;2023-05-24T04:58:10;26.80;;;6.33;;
13388;SDS011;6764;53.250;10.410;2023-05-24T05:00:36;23.93;;;6.23;;
13388;SDS011;6764;53.250;10.410;2023-05-24T05:03:01;27.37;;;6.83;;
13388;SDS011;6764;53.250;10.410;2023-05-24T05:05:27;21.20;;;6.13;;
13388;SDS011;6764;53.250;10.410;2023-05-24T05:07:53;25.80;;;6.43;;
13388;SDS011;6764;53.250;10.410;2023-05-24T05:10:18;23.67;;;7.00;;
13388;SDS011;6764;53.250;10.410;2023-05-24T05:12:44;23.40;;;6.67;;
13388;SDS011;6764;53.250;10.410;2023-05-24T05:15:10;29.33;;;6.37;;
13388;SDS011;6764;53.250;10.410;2023-05-24T05:17:36;24.27;;;6.83;;
13388;SDS011;6764;53.250;10.410;2023-05-24T05:20:02;24.60;;;6.90;;
13388;SDS011;6764;53.250;10.410;2023-05-24T05:22:28;27.37;;;6.83;;
13388;SDS011;6764;53.250;10.410;2023-05-24T05:24:54;19.60;;;7.17;;
13388;SDS011;6764;53.250;10.410;2023-05-24T05:27:19;19.23;;;6.33;;
13388;SDS011;6764;53.250;10.410;2023-05-24T05:29:45;22.07;;;8.00;;
13388;SDS011;6764;53.250;10.410;2023-05-24T05:32:11;28.73;;;6.47;;
13388;SDS011;6764;53.250;10.410;2023-05-24T05:34:36;26.77;;;6.57;;
13388;SDS011;6764;53.250;10.410;2023-05-24T05:37:02;20.60;;;6.70;;
13388;SDS011;6764;53.250;10.410;2023-05-24T05:39:27;23.97;;;7.53;;
13388;SDS011;6764;53.250;10.410;2023-05-24T05:41:55;23.30;;;7.47;;
13388;SDS011;6764;53.250;10.410;2023-05-24T05:44:21;19.83;;;5.80;;
13388;SDS011;6764;53.250;10.410;2023-05-24T05:46:47;23.67;;;6.60;;
13388;SDS011;6764;53.250;10.410;2023-05-24T05:49:12;25.23;;;6.67;;
13388;SDS011;6764;53.250;10.410;2023-05-24T05:51:39;26.40;;;6.43;;
13388;SDS011;6764;53.250;10.410;2023-05-24T05:54:05;24.43;;;6.47;;
13388;SDS011;6764;53.250;10.410;2023-05-24T05:56:38;24.07;;;7.07;;
13388;SDS011;6764;53.250;10.410;2023-05-24T05:59:12;19.73;;;6.20;;
13388;SDS011;6764;53.250;10.410;2023-05-24T06:01:42;20.57;;;6.13;;
13388;SDS011;6764;53.250;10.410;2023-05-24T06:04:11;25.13;;;6.97;;
13388;SDS011;6764;53.250;10.410;2023-05-24T06:06:36;29.30;;;8.03;;
13388;SDS011;6764;53.250;10.410;2023-05-24T06:09:02;30.93;;;6.67;;
13388;SDS011;6764;53.250;10.410;2023-05-24T06:11:28;20.50;;;6.93;;
13388;SDS011;6764;53.250;10.410;2023-05-24T06:13:53;24.57;;;6.33;;
13388;SDS011;6764;53.250;10.410;2023-05-24T06:16:19;21.67;;;6.30;;
13388;SDS011;6764;53.250;10.410;2023-05-24T06:18:45;21.33;;;6.43;;
13388;SDS011;6764;53.250;10.410;2023-05-24T06:21:14;27.10;;;11.03;;
13388;SDS011;6764;53.250;10.410;2023-05-24T06:23:40;26.87;;;7.97;;
13388;SDS011;6764;53.250;10.410;2023-05-24T06:26:07;18.60;;;6.07;;
13388;SDS011;6764;53.250;10.410;2023-05-24T06:28:35;30.53;;;6.47;;
13388;SDS011;6764;53.250;10.410;2023-05-24T06:31:02;22.73;;;5.77;;
13388;SDS011;6764;53.250;10.410;2023-05-24T06:33:28;21.50;;;6.30;;
13388;SDS011;6764;53.250;10.410;2023-05-24T06:35:55;15.50;;;5.30;;
13388;SDS011;6764;53.250;10.410;2023-05-24T06:38:21;17.87;;;6.13;;
13388;SDS011;6764;53.250;10.410;2023-05-24T06:40:46;18.17;;;4.80;;
13388;SDS011;6764;53.250;10.410;2023-05-24T06:43:12;18.93;;;5.97;;
13388;SDS011;6764;53.250;10.410;2023-05-24T06:45:37;18.70;;;5.37;;
13388;SDS011;6764;53.250;10.410;2023-05-24T06:48:03;12.30;;;5.13;;
13388;SDS011;6764;53.250;10.410;2023-05-24T06:50:29;17.97;;;5.80;;
13388;SDS011;6764;53.250;10.410;2023-05-24T06:52:55;22.27;;;5.43;;
13388;SDS011;6764;53.250;10.410;2023-05-24T06:55:20;20.57;;;6.10;;
13388;SDS011;6764;53.250;10.410;2023-05-24T06:57:46;21.23;;;6.33;;
13388;SDS011;6764;53.250;10.410;2023-05-24T07:00:12;19.07;;;6.40;;
13388;SDS011;6764;53.250;10.410;2023-05-24T07:02:41;19.77;;;6.67;;
13388;SDS011;6764;53.250;10.410;2023-05-24T07:05:07;16.27;;;6.10;;
13388;SDS011;6764;53.250;10.410;2023-05-24T07:07:42;18.33;;;5.67;;
13388;SDS011;6764;53.250;10.410;2023-05-24T07:10:08;20.63;;;5.97;;
13388;SDS011;6764;53.250;10.410;2023-05-24T07:12:35;18.00;;;6.23;;
13388;SDS011;6764;53.250;10.410;2023-05-24T07:15:01;18.47;;;5.67;;
13388;SDS011;6764;53.250;10.410;2023-05-24T07:17:27;19.70;;;6.37;;
13388;SDS011;6764;53.250;10.410;2023-05-24T07:19:53;22.00;;;6.57;;
13388;SDS011;6764;53.250;10.410;2023-05-24T07:22:19;14.43;;;4.70;;
13388;SDS011;6764;53.250;10.410;2023-05-24T07:24:44;23.70;;;6.10;;
13388;SDS011;6764;53.250;10.410;2023-05-24T07:27:10;20.33;;;5.70;;
13388;SDS011;6764;53.250;10.410;2023-05-24T07:29:35;21.03;;;5.83;;
13388;SDS011;6764;53.250;10.410;2023-05-24T07:32:01;21.63;;;6.43;;
13388;SDS011;6764;53.250;10.410;2023-05-24T07:34:27;17.77;;;5.77;;
13388;SDS011;6764;53.250;10.410;2023-05-24T07:36:54;16.50;;;6.07;;
13388;SDS011;6764;53.250;10.410;2023-05-24T07:39:22;17.00;;;6.00;;
13388;SDS011;6764;53.250;10.410;2023-05-24T07:41:49;21.03;;;8.33;;
13388;SDS011;6764;53.250;10.410;2023-05-24T07:44:15;25.33;;;7.33;;
13388;SDS011;6764;53.250;10.410;2023-05-24T07:46:40;22.43;;;7.10;;
13388;SDS011;6764;53.250;10.410;2023-05-24T07:49:06;22.37;;;6.57;;
13388;SDS011;6764;53.250;10.410;2023-05-24T07:51:31;18.93;;;6.13;;
13388;SDS011;6764;53.250;10.410;2023-05-24T07:53:57;18.47;;;6.53;;
13388;SDS011;6764;53.250;10.410;2023-05-24T07:56:23;22.07;;;6.27;;
13388;SDS011;6764;53.250;10.410;2023-05-24T07:58:49;22.40;;;5.83;;
13388;SDS011;6764;53.250;10.410;2023-05-24T08:01:16;19.40;;;6.70;;
13388;SDS011;6764;53.250;10.410;2023-05-24T08:03:44;16.23;;;6.37;;
13388;SDS011;6764;53.250;10.410;2023-05-24T08:06:10;15.37;;;5.50;;
13388;SDS011;6764;53.250;10.410;2023-05-24T08:08:39;21.50;;;6.73;;
13388;SDS011;6764;53.250;10.410;2023-05-24T08:11:05;17.70;;;5.90;;
13388;SDS011;6764;53.250;10.410;2023-05-24T08:13:32;20.77;;;6.63;;
13388;SDS011;6764;53.250;10.410;2023-05-24T08:15:58;15.67;;;5.90;;
13388;SDS011;6764;53.250;10.410;2023-05-24T08:18:24;21.63;;;7.30;;
13388;SDS011;6764;53.250;10.410;2023-05-24T08:20:49;14.67;;;5.43;;
13388;SDS011;6764;53.250;10.410;2023-05-24T08:23:15;13.13;;;5.10;;
13388;SDS011;6764;53.250;10.410;2023-05-24T08:25:41;19.73;;;6.37;;
13388;SDS011;6764;53.250;10.410;2023-05-24T08:28:07;16.27;;;5.50;;
13388;SDS011;6764;53.250;10.410;2023-05-24T08:30:34;18.47;;;5.77;;
13388;SDS011;6764;53.250;10.410;2023-05-24T08:33:01;15.47;;;6.00;;
13388;SDS011;6764;53.250;10.410;2023-05-24T08:35:26;19.23;;;6.17;;
13388;SDS011;6764;53.250;10.410;2023-05-24T08:37:52;17.37;;;6.27;;
13388;SDS011;6764;53.250;10.410;2023-05-24T08:40:17;14.57;;;6.03;;
13388;SDS011;6764;53.250;10.410;2023-05-24T08:42:43;18.70;;;6.13;;
13388;SDS011;6764;53.250;10.410;2023-05-24T08:45:11;17.67;;;5.97;;
13388;SDS011;6764;53.250;10.410;2023-05-24T08:47:38;22.70;;;6.70;;
13388;SDS011;6764;53.250;10.410;2023-05-24T08:50:04;21.63;;;8.07;;
13388;SDS011;6764;53.250;10.410;2023-05-24T08:52:30;18.83;;;6.27;;
13388;SDS011;6764;53.250;10.410;2023-05-24T08:54:57;24.20;;;7.00;;
13388;SDS011;6764;53.250;10.410;2023-05-24T08:57:25;19.80;;;6.97;;
13388;SDS011;6764;53.250;10.410;2023-05-24T08:59:51;16.83;;;6.73;;
13388;SDS011;6764;53.250;10.410;2023-05-24T09:02:20;15.67;;;6.50;;
13388;SDS011;6764;53.250;10.410;2023-05-24T09:04:46;20.27;;;6.63;;
13388;SDS011;6764;53.250;10.410;2023-05-24T09:07:13;16.63;;;6.63;;
13388;SDS011;6764;53.250;10.410;2023-05-24T09:09:41;15.17;;;5.93;;
13388;SDS011;6764;53.250;10.410;2023-05-24T09:12:13;19.08;;;5.93;;
13388;SDS011;6764;53.250;10.410;2023-05-24T09:14:42;19.77;;;6.32;;
13388;SDS011;6764;53.250;10.410;2023-05-24T09:17:13;16.88;;;6.20;;
13388;SDS011;6764;53.250;10.410;2023-05-24T09:19:42;16.23;;;6.88;;
13388;SDS011;6764;53.250;10.410;2023-05-24T09:22:14;14.00;;;6.37;;
13388;SDS011;6764;53.250;10.410;2023-05-24T09:24:46;17.13;;;6.13;;
13388;SDS011;6764;53.250;10.410;2023-05-24T09:27:13;16.92;;;5.90;;
13388;SDS011;6764;53.250;10.410;2023-05-24T09:29:40;14.50;;;6.30;;
13388;SDS011;6764;53.250;10.410;2023-05-24T09:32:07;20.90;;;7.53;;
13388;SDS011;6764;53.250;10.410;2023-05-24T09:34:42;14.82;;;6.20;;
13388;SDS011;6764;53.250;10.410;2023-05-24T09:37:13;27.37;;;7.93;;
13388;SDS011;6764;53.250;10.410;2023-05-24T09:39:40;22.97;;;7.90;;
13388;SDS011;6764;53.250;10.410;2023-05-24T09:42:07;22.07;;;7.03;;
13388;SDS011;6764;53.250;10.410;2023-05-24T09:44:38;18.80;;;7.07;;
13388;SDS011;6764;53.250;10.410;2023-05-24T09:47:03;22.43;;;7.03;;
13388;SDS011;6764;53.250;10.410;2023-05-24T09:49:30;27.70;;;8.23;;
13388;SDS011;6764;53.250;10.410;2023-05-24T09:52:05;19.90;;;8.10;;
13388;SDS011;6764;53.250;10.410;2023-05-24T09:54:31;21.73;;;8.50;;
13388;SDS011;6764;53.250;10.410;2023-05-24T09:57:01;18.30;;;8.20;;
13388;SDS011;6764;53.250;10.410;2023-05-24T09:59:31;22.73;;;7.40;;
13388;SDS011;6764;53.250;10.410;2023-05-24T10:02:16;18.77;;;7.47;;
13388;SDS011;6764;53.250;10.410;2023-05-24T10:04:45;22.83;;;8.47;;
13388;SDS011;6764;53.250;10.410;2023-05-24T10:07:11;20.27;;;8.03;;
13388;SDS011;6764;53.250;10.410;2023-05-24T10:09:37;20.27;;;8.60;;
13388;SDS011;6764;53.250;10.410;2023-05-24T10:12:05;18.37;;;7.93;;
13388;SDS011;6764;53.250;10.410;2023-05-24T10:14:35;26.43;;;8.40;;
13388;SDS011;6764;53.250;10.410;2023-05-24T10:17:02;19.60;;;8.10;;
13388;SDS011;6764;53.250;10.410;2023-05-24T10:19:34;15.93;;;7.90;;
13388;SDS011;6764;53.250;10.410;2023-05-24T10:22:03;22.93;;;8.37;;
13388;SDS011;6764;53.250;10.410;2023-05-24T10:24:32;26.40;;;8.27;;
13388;SDS011;6764;53.250;10.410;2023-05-24T10:27:04;17.23;;;8.33;;
13388;SDS011;6764;53.250;10.410;2023-05-24T10:32:12;19.07;;;7.17;;
13388;SDS011;6764;53.250;10.410;2023-05-24T10:34:40;21.70;;;7.20;;
13388;SDS011;6764;53.250;10.410;2023-05-24T10:37:07;20.33;;;7.63;;
13388;SDS011;6764;53.250;10.410;2023-05-24T10:39:33;24.80;;;7.60;;
13388;SDS011;6764;53.250;10.410;2023-05-24T10:42:03;19.38;;;8.13;;
13388;SDS011;6764;53.250;10.410;2023-05-24T10:44:30;19.30;;;7.13;;
13388;SDS011;6764;53.250;10.410;2023-05-24T10:49:49;21.02;;;6.60;;
13388;SDS011;6764;53.250;10.410;2023-05-24T10:52:17;23.08;;;6.97;;
13388;SDS011;6764;53.250;10.410;2023-05-24T10:57:29;17.50;;;6.57;;
13388;SDS011;6764;53.250;10.410;2023-05-24T11:03:02;15.00;;;6.47;;
13388;SDS011;6764;53.250;10.410;2023-05-24T11:05:47;23.35;;;6.20;;
13388;SDS011;6764;53.250;10.410;2023-05-24T11:08:13;12.88;;;6.15;;
13388;SDS011;6764;53.250;10.410;2023-05-24T11:11:05;15.57;;;5.88;;
13388;SDS011;6764;53.250;10.410;2023-05-24T11:13:38;17.33;;;6.13;;
13388;SDS011;6764;53.250;10.410;2023-05-24T11:16:05;17.67;;;6.05;;
13388;SDS011;6764;53.250;10.410;2023-05-24T11:18:31;15.18;;;6.13;;
13388;SDS011;6764;53.250;10.410;2023-05-24T11:21:02;15.00;;;6.35;;
13388;SDS011;6764;53.250;10.410;2023-05-24T11:23:28;15.55;;;5.75;;
13388;SDS011;6764;53.250;10.410;2023-05-24T11:25:55;14.50;;;5.57;;
13388;SDS011;6764;53.250;10.410;2023-05-24T11:28:21;16.30;;;6.20;;
13388;SDS011;6764;53.250;10.410;2023-05-24T11:30:48;16.67;;;5.68;;
13388;SDS011;6764;53.250;10.410;2023-05-24T11:35:42;15.88;;;5.40;;
13388;SDS011;6764;53.250;10.410;2023-05-24T11:38:09;11.23;;;5.57;;
13388;SDS011;6764;53.250;10.410;2023-05-24T11:40:41;14.07;;;5.30;;
13388;SDS011;6764;53.250;10.410;2023-05-24T11:43:15;15.20;;;5.13;;
13388;SDS011;6764;53.250;10.410;2023-05-24T11:45:43;20.23;;;5.55;;
13388;SDS011;6764;53.250;10.410;2023-05-24T11:48:12;16.40;;;5.47;;
13388;SDS011;6764;53.250;10.410;2023-05-24T11:50:42;18.92;;;6.88;;
13388;SDS011;6764;53.250;10.410;2023-05-24T11:53:15;14.73;;;5.88;;
13388;SDS011;6764;53.250;10.410;2023-05-24T11:55:43;12.27;;;5.53;;
13388;SDS011;6764;53.250;10.410;2023-05-24T12:00:46;14.93;;;5.45;;
13388;SDS011;6764;53.250;10.410;2023-05-24T12:03:13;14.30;;;5.22;;
13388;SDS011;6764;53.250;10.410;2023-05-24T12:05:38;13.63;;;4.63;;
13388;SDS011;6764;53.250;10.410;2023-05-24T12:08:05;17.20;;;5.93;;
13388;SDS011;6764;53.250;10.410;2023-05-24T12:10:35;13.40;;;5.10;;
13388;SDS011;6764;53.250;10.410;2023-05-24T12:13:02;12.82;;;5.07;;
13388;SDS011;6764;53.250;10.410;2023-05-24T12:15:28;16.08;;;5.85;;
13388;SDS011;6764;53.250;10.410;2023-05-24T12:17:54;11.27;;;4.95;;
13388;SDS011;6764;53.250;10.410;2023-05-24T12:20:23;10.90;;;4.55;;
13388;SDS011;6764;53.250;10.410;2023-05-24T12:22:55;12.15;;;4.75;;
13388;SDS011;6764;53.250;10.410;2023-05-24T12:25:21;13.88;;;4.63;;
13388;SDS011;6764;53.250;10.410;2023-05-24T12:27:53;15.02;;;5.20;;
13388;SDS011;6764;53.250;10.410;2023-05-24T12:30:23;12.35;;;5.40;;
13388;SDS011;6764;53.250;10.410;2023-05-24T12:32:51;15.77;;;5.65;;
13388;SDS011;6764;53.250;10.410;2023-05-24T12:35:20;14.93;;;5.20;;
13388;SDS011;6764;53.250;10.410;2023-05-24T12:37:49;12.25;;;4.70;;
13388;SDS011;6764;53.250;10.410;2023-05-24T12:40:21;14.20;;;4.95;;
13388;SDS011;6764;53.250;10.410;2023-05-24T12:42:54;17.13;;;7.57;;
13388;SDS011;6764;53.250;10.410;2023-05-24T12:45:25;13.32;;;4.68;;
13388;SDS011;6764;53.250;10.410;2023-05-24T12:47:52;15.13;;;4.70;;
13388;SDS011;6764;53.250;10.410;2023-05-24T12:50:23;15.10;;;5.43;;
13388;SDS011;6764;53.250;10.410;2023-05-24T12:52:50;9.98;;;4.55;;
13388;SDS011;6764;53.250;10.410;2023-05-24T12:55:23;15.98;;;5.18;;
13388;SDS011;6764;53.250;10.410;2023-05-24T12:57:50;11.85;;;5.68;;
13388;SDS011;6764;53.250;10.410;2023-05-24T13:00:19;12.63;;;4.65;;
13388;SDS011;6764;53.250;10.410;2023-05-24T13:02:46;12.00;;;4.63;;
13388;SDS011;6764;53.250;10.410;2023-05-24T13:05:12;13.02;;;5.00;;
13388;SDS011;6764;53.250;10.410;2023-05-24T13:07:38;15.13;;;5.22;;
13388;SDS011;6764;53.250;10.410;2023-05-24T13:10:08;10.82;;;4.75;;
13388;SDS011;6764;53.250;10.410;2023-05-24T13:12:41;10.35;;;4.22;;
13388;SDS011;6764;53.250;10.410;2023-05-24T13:15:16;15.73;;;5.38;;
13388;SDS011;6764;53.250;10.410;2023-05-24T13:17:46;15.90;;;5.82;;
13388;SDS011;6764;53.250;10.410;2023-05-24T13:20:12;16.60;;;5.32;;
13388;SDS011;6764;53.250;10.410;2023-05-24T13:22:37;11.82;;;5.15;;
13388;SDS011;6764;53.250;10.410;2023-05-24T13:25:04;17.50;;;5.28;;
13388;SDS011;6764;53.250;10.410;2023-05-24T13:27:34;14.27;;;5.78;;
13388;SDS011;6764;53.250;10.410;2023-05-24T13:30:01;17.25;;;5.35;;
13388;SDS011;6764;53.250;10.410;2023-05-24T13:32:28;10.95;;;5.03;;
13388;SDS011;6764;53.250;10.410;2023-05-24T13:34:54;16.13;;;8.73;;
13388;SDS011;6764;53.250;10.410;2023-05-24T13:37:19;12.55;;;5.10;;
13388;SDS011;6764;53.250;10.410;2023-05-24T13:39:45;14.43;;;8.05;;
13388;SDS011;6764;53.250;10.410;2023-05-24T13:42:11;12.73;;;5.60;;
13388;SDS011;6764;53.250;10.410;2023-05-24T13:44:39;11.95;;;5.47;;
13388;SDS011;6764;53.250;10.410;2023-05-24T13:47:05;17.77;;;5.50;;
13388;SDS011;6764;53.250;10.410;2023-05-24T13:49:32;18.02;;;5.82;;
13388;SDS011;6764;53.250;10.410;2023-05-24T13:51:58;15.45;;;6.35;;
13388;SDS011;6764;53.250;10.410;2023-05-24T13:54:24;15.63;;;6.03;;
13388;SDS011;6764;53.250;10.410;2023-05-24T13:56:53;16.02;;;6.05;;
13388;SDS011;6764;53.250;10.410;2023-05-24T13:59:24;16.27;;;5.82;;
13388;SDS011;6764;53.250;10.410;2023-05-24T14:01:49;17.25;;;5.88;;
13388;SDS011;6764;53.250;10.410;2023-05-24T14:04:15;13.85;;;5.68;;
13388;SDS011;6764;53.250;10.410;2023-05-24T14:06:41;18.63;;;5.95;;
13388;SDS011;6764;53.250;10.410;2023-05-24T14:09:07;13.30;;;5.15;;
13388;SDS011;6764;53.250;10.410;2023-05-24T14:11:33;13.15;;;5.85;;
13388;SDS011;6764;53.250;10.410;2023-05-24T14:14:00;14.88;;;5.95;;
13388;SDS011;6764;53.250;10.410;2023-05-24T14:16:26;13.85;;;6.10;;
13388;SDS011;6764;53.250;10.410;2023-05-24T14:18:52;19.73;;;6.07;;
13388;SDS011;6764;53.250;10.410;2023-05-24T14:21:18;14.98;;;5.72;;
13388;SDS011;6764;53.250;10.410;2023-05-24T14:23:46;14.40;;;5.57;;
13388;SDS011;6764;53.250;10.410;2023-05-24T14:26:13;18.80;;;6.07;;
13388;SDS011;6764;53.250;10.410;2023-05-24T14:28:39;15.40;;;6.28;;
13388;SDS011;6764;53.250;10.410;2023-05-24T14:31:05;14.57;;;5.45;;
13388;SDS011;6764;53.250;10.410;2023-05-24T14:33:31;17.63;;;5.60;;
13388;SDS011;6764;53.250;10.410;2023-05-24T14:35:56;15.95;;;6.07;;
13388;SDS011;6764;53.250;10.410;2023-05-24T14:38:22;14.38;;;5.95;;
13388;SDS011;6764;53.250;10.410;2023-05-24T14:40:51;17.45;;;5.90;;
13388;SDS011;6764;53.250;10.410;2023-05-24T14:43:17;15.57;;;5.43;;
13388;SDS011;6764;53.250;10.410;2023-05-24T14:45:43;16.20;;;5.72;;
13388;SDS011;6764;53.250;10.410;2023-05-24T14:48:11;14.02;;;6.35;;
13388;SDS011;6764;53.250;10.410;2023-05-24T14:50:38;15.98;;;5.95;;
13388;SDS011;6764;53.250;10.410;2023-05-24T14:53:04;14.75;;;5.70;;
13388;SDS011;6764;53.250;10.410;2023-05-24T14:55:35;17.77;;;6.18;;
13388;SDS011;6764;53.250;10.410;2023-05-24T14:58:02;12.35;;;5.53;;
13388;SDS011;6764;53.250;10.410;2023-05-24T15:00:28;15.40;;;5.25;;
13388;SDS011;6764;53.250;10.410;2023-05-24T15:02:54;32.20;;;15.50;;
13388;SDS011;6764;53.250;10.410;2023-05-24T15:05:22;12.90;;;5.55;;
13388;SDS011;6764;53.250;10.410;2023-05-24T15:07:48;17.00;;;6.15;;